createdAt,value
2023-01-12T00:00:00.925Z,67.38
2023-01-12T00:02:27.807Z,67.48
2023-01-12T00:04:55.198Z,67.58
2023-01-12T00:07:22.085Z,67.70
2023-01-12T00:09:49.092Z,67.77
2023-01-12T00:12:16.119Z,67.77
2023-01-12T00:14:43.031Z,67.86
2023-01-12T00:17:11.901Z,67.90
2023-01-12T00:19:39.367Z,67.97
2023-01-12T00:22:11.531Z,68.03
2023-01-12T00:24:44.042Z,68.14
2023-01-12T00:27:29.884Z,68.24
2023-01-12T00:29:56.711Z,68.25
2023-01-12T00:32:23.577Z,68.31
2023-01-12T00:34:51.284Z,68.32
2023-01-12T00:37:19.596Z,68.38
2023-01-12T00:40:00.808Z,68.47
2023-01-12T00:42:47.593Z,68.49
2023-01-12T00:45:21.619Z,68.52
2023-01-12T00:47:50.785Z,68.55
2023-01-12T00:50:19.667Z,68.57
2023-01-12T00:52:46.849Z,68.62
2023-01-12T00:55:14.299Z,68.69
2023-01-12T00:57:46.673Z,68.67
2023-01-12T01:00:14.447Z,68.61
2023-01-12T01:02:41.534Z,68.62
2023-01-12T01:05:09.149Z,68.69
2023-01-12T01:07:38.394Z,68.77
2023-01-12T01:10:06.253Z,68.83
2023-01-12T01:12:33.186Z,68.93
2023-01-12T01:15:00.385Z,68.97
2023-01-12T01:17:28.806Z,68.99
2023-01-12T01:19:55.729Z,69.08
2023-01-12T01:22:22.618Z,69.11
2023-01-12T01:24:49.533Z,69.14
2023-01-12T01:27:16.457Z,69.21
2023-01-12T01:29:43.795Z,69.25
2023-01-12T01:32:10.702Z,69.31
2023-01-12T01:34:37.631Z,69.33
2023-01-12T01:37:05.305Z,69.41
2023-01-12T01:39:32.263Z,69.45
2023-01-12T01:41:59.234Z,69.47
2023-01-12T01:44:30.979Z,69.56
2023-01-12T01:47:11.161Z,69.59
2023-01-12T01:49:49.037Z,69.62
2023-01-12T01:52:26.337Z,69.69
2023-01-12T01:55:13.943Z,69.76
2023-01-12T01:57:57.378Z,69.85
2023-01-12T02:00:28.463Z,69.95
2023-01-12T02:02:58.356Z,70.00
2023-01-12T02:05:30.678Z,70.06
2023-01-12T02:08:08.840Z,70.11
2023-01-12T02:10:38.350Z,70.18
2023-01-12T02:13:27.222Z,70.23
2023-01-12T02:16:22.205Z,70.18
2023-01-12T02:19:11.426Z,70.21
2023-01-12T02:22:02.511Z,70.33
2023-01-12T02:25:10.245Z,70.27
2023-01-12T02:28:12.890Z,70.34
2023-01-12T02:31:19.929Z,70.38
2023-01-12T02:34:33.411Z,70.42
2023-01-12T02:37:15.418Z,70.53
2023-01-12T02:40:00.387Z,70.57
2023-01-12T02:42:54.560Z,70.66
2023-01-12T02:46:22.051Z,70.67
2023-01-12T02:56:32.110Z,70.65
2023-01-12T02:59:02.354Z,70.68
2023-01-12T03:01:29.262Z,70.71
2023-01-12T03:03:56.979Z,70.77
2023-01-12T03:06:23.920Z,70.75
2023-01-12T03:08:51.093Z,70.74
2023-01-12T03:11:21.739Z,70.84
2023-01-12T03:13:58.485Z,70.94
2023-01-12T03:16:27.841Z,70.96
2023-01-12T03:18:54.681Z,71.01
2023-01-12T03:21:37.443Z,71.10
2023-01-12T03:24:15.434Z,71.20
2023-01-12T03:26:47.606Z,71.20
2023-01-12T03:29:26.058Z,71.30
2023-01-12T03:31:52.869Z,71.39
2023-01-12T03:34:19.728Z,71.45
2023-01-12T03:36:58.159Z,71.50
2023-01-12T03:40:02.844Z,71.49
2023-01-12T03:42:33.707Z,71.55
2023-01-12T03:45:15.930Z,71.59
2023-01-12T03:47:43.584Z,71.69
2023-01-12T03:50:12.898Z,71.65
2023-01-12T03:52:39.809Z,71.65
2023-01-12T03:55:08.241Z,71.68
2023-01-12T03:57:35.061Z,71.75
2023-01-12T04:00:01.866Z,71.84
2023-01-12T04:02:28.727Z,71.87
2023-01-12T04:04:55.911Z,71.95
2023-01-12T04:07:23.742Z,71.96
2023-01-12T04:09:50.599Z,72.00
2023-01-12T04:12:17.528Z,72.05
2023-01-12T04:14:47.957Z,72.01
2023-01-12T04:17:15.361Z,72.04
2023-01-12T04:19:42.265Z,72.16
2023-01-12T04:22:29.505Z,72.17
2023-01-12T04:24:56.406Z,72.25
2023-01-12T04:27:23.246Z,72.23
2023-01-12T04:30:06.797Z,72.22
2023-01-12T04:32:35.780Z,72.32
2023-01-12T04:35:02.631Z,72.33
2023-01-12T04:37:31.973Z,72.44
2023-01-12T04:39:58.861Z,72.42
2023-01-12T04:42:54.915Z,72.36
2023-01-12T04:45:22.266Z,72.47
2023-01-12T04:47:49.193Z,72.45
2023-01-12T04:50:16.067Z,72.46
2023-01-12T04:52:42.951Z,72.45
2023-01-12T04:55:09.956Z,72.58
2023-01-12T04:57:36.975Z,72.50
2023-01-12T05:00:05.291Z,72.52
2023-01-12T05:02:35.168Z,72.47
2023-01-12T05:05:02.246Z,72.46
2023-01-12T05:07:29.170Z,72.51
2023-01-12T05:10:14.967Z,72.49
2023-01-12T05:12:41.997Z,72.50
2023-01-12T05:15:09.683Z,72.48
2023-01-12T05:17:36.633Z,72.55
2023-01-12T05:20:04.160Z,72.53
2023-01-12T05:22:31.522Z,72.48
2023-01-12T05:24:58.497Z,72.45
2023-01-12T05:27:25.354Z,72.45
2023-01-12T05:29:52.882Z,72.46
2023-01-12T05:32:19.773Z,72.48
2023-01-12T05:34:46.639Z,72.49
2023-01-12T05:37:13.612Z,72.52
2023-01-12T05:39:40.540Z,72.47
2023-01-12T05:42:26.070Z,72.40
2023-01-12T05:44:55.364Z,72.53
2023-01-12T05:47:22.214Z,72.51
2023-01-12T05:49:49.160Z,72.51
2023-01-12T05:52:16.056Z,72.49
2023-01-12T05:54:43.007Z,72.48
2023-01-12T05:57:09.886Z,72.53
2023-01-12T05:59:36.799Z,72.55
2023-01-12T06:02:03.819Z,72.54
2023-01-12T06:04:30.997Z,72.51
2023-01-12T06:06:58.874Z,72.58
2023-01-12T06:09:25.909Z,72.52
2023-01-12T06:12:11.589Z,72.61
2023-01-12T06:14:38.473Z,72.55
2023-01-12T06:17:05.579Z,72.65
2023-01-12T06:19:32.542Z,72.56
2023-01-12T06:21:59.858Z,72.59
2023-01-12T06:24:28.408Z,72.62
2023-01-12T06:26:55.514Z,72.67
2023-01-12T06:29:22.481Z,72.64
2023-01-12T06:31:49.295Z,72.66
2023-01-12T06:34:16.212Z,72.74
2023-01-12T06:36:43.192Z,72.81
2023-01-12T06:39:12.193Z,72.79
2023-01-12T06:41:57.874Z,72.80
2023-01-12T06:44:24.763Z,72.84
2023-01-12T06:46:51.625Z,72.82
2023-01-12T06:49:18.769Z,72.72
2023-01-12T06:51:49.192Z,72.68
2023-01-12T06:54:18.347Z,72.73
2023-01-12T06:56:45.697Z,72.76
2023-01-12T06:59:12.837Z,72.77
2023-01-12T07:01:40.955Z,72.68
2023-01-12T07:04:08.081Z,72.66
2023-01-12T07:06:35.124Z,72.65
2023-01-12T07:09:02.900Z,72.64
2023-01-12T07:11:29.688Z,72.53
2023-01-12T07:13:56.474Z,72.52
2023-01-12T07:16:23.429Z,72.58
2023-01-12T07:18:50.264Z,72.45
2023-01-12T07:21:19.239Z,72.52
2023-01-12T07:23:46.043Z,72.41
2023-01-12T07:26:12.871Z,72.39
2023-01-12T07:28:39.869Z,72.40
2023-01-12T07:31:07.091Z,72.37
2023-01-12T07:33:34.559Z,72.32
2023-01-12T07:36:02.129Z,72.38
2023-01-12T07:38:29.813Z,72.36
2023-01-12T07:41:00.811Z,72.29
2023-01-12T07:43:27.797Z,72.30
2023-01-12T07:45:58.412Z,72.28
2023-01-12T07:48:26.748Z,72.21
2023-01-12T07:50:54.102Z,72.28
2023-01-12T07:53:20.984Z,72.20
2023-01-12T07:55:47.778Z,72.09
2023-01-12T07:58:14.582Z,71.98
2023-01-12T08:00:41.914Z,71.97
2023-01-12T08:03:10.542Z,71.93
2023-01-12T08:05:37.862Z,71.97
2023-01-12T08:08:05.898Z,72.03
2023-01-12T08:10:32.892Z,71.98
2023-01-12T08:12:59.689Z,72.04
2023-01-12T08:15:26.502Z,71.98
2023-01-12T08:17:57.344Z,71.91
2023-01-12T08:20:27.881Z,71.91
2023-01-12T08:22:56.018Z,71.89
2023-01-12T08:25:28.186Z,71.73
2023-01-12T08:27:56.458Z,71.58
2023-01-12T08:30:24.114Z,71.45
2023-01-12T08:32:50.953Z,71.30
2023-01-12T08:35:20.543Z,71.08
2023-01-12T08:37:47.320Z,70.96
2023-01-12T08:40:14.391Z,70.94
2023-01-12T08:42:41.174Z,70.95
2023-01-12T08:45:08.720Z,70.89
2023-01-12T08:47:35.609Z,70.93
2023-01-12T08:50:03.159Z,70.75
2023-01-12T08:52:31.719Z,70.78
2023-01-12T08:54:58.788Z,70.70
2023-01-12T08:57:25.598Z,70.68
2023-01-12T08:59:52.485Z,70.60
2023-01-12T09:02:19.312Z,70.62
2023-01-12T09:04:46.195Z,70.68
2023-01-12T09:07:13.207Z,70.70
2023-01-12T09:09:40.204Z,70.60
2023-01-12T09:12:07.365Z,70.58
2023-01-12T09:14:40.292Z,70.61
2023-01-12T09:17:07.227Z,70.52
2023-01-12T09:19:34.383Z,70.55
2023-01-12T09:22:01.273Z,70.55
2023-01-12T09:24:28.135Z,70.42
2023-01-12T09:26:54.898Z,70.28
2023-01-12T09:29:21.735Z,70.35
2023-01-12T09:31:48.648Z,70.34
2023-01-12T09:34:15.681Z,70.29
2023-01-12T09:36:42.605Z,70.07
2023-01-12T09:39:18.647Z,69.90
2023-01-12T09:42:11.982Z,69.90
2023-01-12T09:44:59.691Z,69.83
2023-01-12T09:47:36.715Z,69.68
2023-01-12T09:50:12.119Z,69.69
2023-01-12T09:52:50.890Z,69.80
2023-01-12T09:55:20.222Z,69.78
2023-01-12T09:58:06.000Z,69.73
2023-01-12T10:00:32.885Z,69.62
2023-01-12T10:03:28.318Z,69.44
2023-01-12T10:05:58.329Z,69.27
2023-01-12T10:08:28.272Z,69.27
2023-01-12T10:11:08.654Z,69.19
2023-01-12T10:13:51.245Z,69.13
2023-01-12T10:16:53.624Z,69.13
2023-01-12T10:19:42.484Z,69.03
2023-01-12T10:22:37.304Z,69.00
2023-01-12T10:25:19.033Z,68.96
2023-01-12T10:27:48.015Z,68.94
2023-01-12T10:30:41.700Z,68.94
2023-01-12T10:33:09.627Z,69.00
2023-01-12T10:35:36.685Z,68.99
2023-01-12T10:38:03.549Z,68.93
2023-01-12T10:40:32.185Z,68.92
2023-01-12T10:43:31.989Z,69.01
2023-01-12T10:46:02.887Z,69.00
2023-01-12T10:48:31.060Z,69.09
2023-01-12T10:50:59.873Z,69.06
2023-01-12T10:53:30.046Z,68.94
2023-01-12T10:55:57.082Z,68.92
2023-01-12T10:58:29.401Z,68.88
2023-01-12T11:00:56.413Z,68.94
2023-01-12T11:03:49.725Z,68.82
2023-01-12T11:06:30.956Z,68.73
2023-01-12T11:08:57.878Z,68.64
2023-01-12T11:11:32.220Z,68.46
2023-01-12T11:14:01.193Z,68.46
2023-01-12T11:16:32.906Z,68.53
2023-01-12T11:19:18.774Z,68.53
2023-01-12T11:21:54.681Z,68.52
2023-01-12T11:24:42.460Z,68.40
2023-01-12T11:27:23.112Z,68.30
2023-01-12T11:30:00.887Z,68.14
2023-01-12T11:32:32.842Z,67.86
2023-01-12T11:35:32.201Z,67.78
2023-01-12T11:38:01.381Z,67.51
2023-01-12T11:40:33.008Z,67.43
2023-01-12T11:43:49.501Z,67.54
2023-01-12T11:46:27.930Z,67.39
2023-01-12T11:49:11.882Z,67.20
2023-01-12T11:51:39.096Z,67.19
2023-01-12T11:54:06.484Z,67.07
2023-01-12T11:56:48.514Z,67.03
2023-01-12T11:59:36.645Z,67.06
2023-01-12T12:02:29.049Z,67.04
2023-01-12T12:05:24.308Z,67.01
2023-01-12T12:07:57.147Z,67.02
2023-01-12T12:10:25.455Z,67.13
2023-01-12T12:13:27.819Z,67.06
2023-01-12T12:16:05.185Z,67.08
2023-01-12T12:18:57.895Z,67.00
2023-01-12T12:21:31.076Z,66.97
2023-01-12T12:24:11.552Z,66.76
2023-01-12T12:26:40.517Z,66.64
2023-01-12T12:29:10.412Z,66.67
2023-01-12T12:31:53.031Z,66.68
2023-01-12T12:34:20.070Z,66.54
2023-01-12T12:37:09.869Z,66.47
2023-01-12T12:40:12.448Z,66.41
2023-01-12T12:43:17.162Z,66.40
2023-01-12T12:45:54.015Z,66.39
2023-01-12T12:48:35.086Z,66.35
2023-01-12T12:51:09.078Z,66.24
2023-01-12T12:53:38.900Z,66.40
2023-01-12T12:56:17.370Z,66.43
2023-01-12T12:58:45.735Z,66.57
2023-01-12T13:01:22.842Z,66.63
2023-01-12T13:03:57.262Z,66.56
2023-01-12T13:06:47.267Z,66.52
2023-01-12T13:09:17.165Z,66.59
2023-01-12T13:12:00.507Z,66.48
2023-01-12T13:14:28.303Z,66.52
2023-01-12T13:16:58.050Z,66.52
2023-01-12T13:19:42.169Z,66.53
2023-01-12T13:22:37.001Z,66.53
2023-01-12T13:25:09.943Z,66.52
2023-01-12T13:28:01.671Z,66.64
2023-01-12T13:30:28.798Z,66.72
2023-01-12T13:32:55.553Z,66.84
2023-01-12T13:35:48.776Z,66.83
2023-01-12T13:38:34.261Z,66.97
2023-01-12T13:41:13.602Z,67.09
2023-01-12T13:43:42.078Z,67.10
2023-01-12T13:46:15.913Z,67.24
2023-01-12T13:48:44.855Z,67.34
2023-01-12T13:51:29.519Z,67.36
2023-01-12T13:54:04.268Z,67.52
2023-01-12T13:56:31.399Z,67.62
2023-01-12T13:59:02.611Z,67.75
2023-01-12T14:01:38.104Z,67.83
2023-01-12T14:04:18.067Z,67.84
2023-01-12T14:07:25.091Z,67.90
2023-01-12T14:10:00.866Z,68.04
2023-01-12T14:13:51.319Z,68.04
2023-01-12T14:16:40.676Z,68.11
2023-01-12T14:19:27.778Z,68.05
2023-01-12T14:21:57.128Z,68.04
2023-01-12T14:24:25.229Z,67.95
2023-01-12T14:26:52.083Z,67.91
2023-01-12T14:29:18.923Z,67.80
2023-01-12T14:31:48.674Z,67.78
2023-01-12T14:34:26.376Z,67.75
2023-01-12T14:36:53.175Z,67.83
2023-01-12T14:39:24.820Z,67.77
2023-01-12T14:42:11.247Z,67.75
2023-01-12T14:45:08.361Z,67.69
2023-01-12T14:47:35.288Z,67.77
2023-01-12T14:50:15.823Z,67.95
2023-01-12T14:52:44.069Z,67.97
2023-01-12T14:55:27.654Z,68.06
2023-01-12T14:58:01.611Z,68.09
2023-01-12T15:00:31.041Z,68.15
2023-01-12T15:02:58.793Z,68.26
2023-01-12T15:05:29.606Z,68.34
2023-01-12T15:07:59.574Z,68.22
2023-01-12T15:10:36.258Z,68.33
2023-01-12T15:13:26.291Z,68.38
2023-01-12T15:16:12.622Z,68.43
2023-01-12T15:18:58.127Z,68.44
2023-01-12T15:21:43.768Z,68.48
2023-01-12T15:24:48.941Z,68.54
2023-01-12T15:27:17.391Z,68.68
2023-01-12T15:29:44.247Z,68.72
2023-01-12T15:32:19.276Z,68.72
2023-01-12T15:34:46.696Z,68.76
2023-01-12T15:37:15.187Z,68.82
2023-01-12T15:39:42.138Z,68.88
2023-01-12T15:42:16.521Z,68.95
2023-01-12T15:44:44.376Z,68.93
2023-01-12T15:47:14.655Z,68.93
2023-01-12T15:49:42.072Z,68.99
2023-01-12T15:52:12.850Z,68.87
2023-01-12T15:54:39.777Z,68.84
2023-01-12T15:57:06.598Z,68.94
2023-01-12T15:59:33.405Z,68.93
2023-01-12T16:02:00.319Z,69.05
2023-01-12T16:04:44.117Z,69.07
2023-01-12T16:07:11.232Z,69.02
2023-01-12T16:09:38.143Z,69.03
2023-01-12T16:12:05.660Z,69.05
2023-01-12T16:14:32.854Z,69.08
2023-01-12T16:16:59.797Z,69.17
2023-01-12T16:19:50.187Z,69.24
2023-01-12T16:22:26.555Z,69.15
2023-01-12T16:25:02.408Z,69.18
2023-01-12T16:27:29.308Z,69.25
2023-01-12T16:29:56.202Z,69.31
2023-01-12T16:32:24.690Z,69.34
2023-01-12T16:34:51.672Z,69.31
2023-01-12T16:37:20.031Z,69.33
2023-01-12T16:39:46.911Z,69.20
2023-01-12T16:42:13.805Z,69.30
2023-01-12T16:44:41.038Z,69.32
2023-01-12T16:47:10.352Z,69.29
2023-01-12T16:49:37.519Z,69.17
2023-01-12T16:52:04.931Z,69.26
2023-01-12T16:54:33.480Z,69.30
2023-01-12T16:57:00.375Z,69.36
2023-01-12T16:59:28.511Z,69.34
2023-01-12T17:01:55.626Z,69.31
2023-01-12T17:04:23.345Z,69.31
2023-01-12T17:06:51.068Z,69.30
2023-01-12T17:09:18.380Z,69.21
2023-01-12T17:11:45.785Z,69.20
2023-01-12T17:14:25.307Z,69.29
2023-01-12T17:16:54.955Z,69.30
2023-01-12T17:19:23.178Z,69.24
2023-01-12T17:21:50.382Z,69.27
2023-01-12T17:24:19.946Z,69.35
2023-01-12T17:26:49.578Z,69.34
2023-01-12T17:29:16.474Z,69.24
2023-01-12T17:31:43.801Z,69.32
2023-01-12T17:34:12.122Z,69.31
2023-01-12T17:36:39.280Z,69.30
2023-01-12T17:39:06.247Z,69.34
2023-01-12T17:41:51.869Z,69.35
2023-01-12T17:44:18.728Z,69.36
2023-01-12T17:46:45.682Z,69.36
2023-01-12T17:49:12.930Z,69.35
2023-01-12T17:51:39.826Z,69.34
2023-01-12T17:54:08.062Z,69.34
2023-01-12T17:56:35.719Z,69.43
2023-01-12T17:59:03.192Z,69.48
2023-01-12T18:01:32.108Z,69.52
2023-01-12T18:03:59.580Z,69.54
2023-01-12T18:06:27.114Z,69.51
2023-01-12T18:08:56.625Z,69.48
2023-01-12T18:11:23.893Z,69.53
2023-01-12T18:13:50.757Z,69.54
2023-01-12T18:16:17.682Z,69.59
2023-01-12T18:18:45.082Z,69.64
2023-01-12T18:21:14.018Z,69.61
2023-01-12T18:23:42.152Z,69.63
2023-01-12T18:26:14.108Z,69.62
2023-01-12T18:28:41.507Z,69.58
2023-01-12T18:31:09.407Z,69.58
2023-01-12T18:33:36.771Z,69.65
2023-01-12T18:36:11.250Z,69.65
2023-01-12T18:38:44.495Z,69.69
2023-01-12T18:41:30.054Z,69.65
2023-01-12T18:44:04.503Z,69.70
2023-01-12T18:46:50.700Z,69.69
2023-01-12T18:49:24.347Z,69.72
2023-01-12T18:52:09.905Z,69.67
2023-01-12T18:54:49.006Z,69.79
2023-01-12T18:57:17.793Z,69.78
2023-01-12T18:59:45.896Z,69.82
2023-01-12T19:02:13.247Z,69.89
2023-01-12T19:04:43.006Z,69.89
2023-01-12T19:07:12.642Z,69.98
2023-01-12T19:09:39.587Z,69.98
2023-01-12T19:12:06.736Z,69.99
2023-01-12T19:14:52.356Z,70.15
2023-01-12T19:17:29.889Z,70.22
2023-01-12T19:20:01.578Z,70.21
2023-01-12T19:22:47.361Z,70.26
2023-01-12T19:25:33.891Z,70.33
2023-01-12T19:28:19.849Z,70.43
2023-01-12T19:30:46.998Z,70.45
2023-01-12T19:33:17.335Z,70.50
2023-01-12T19:35:45.097Z,70.49
2023-01-12T19:38:13.705Z,70.46
2023-01-12T19:40:53.943Z,70.46
2023-01-12T19:43:25.178Z,70.50
2023-01-12T19:45:54.279Z,70.57
2023-01-12T19:48:22.311Z,70.55
2023-01-12T19:50:49.500Z,70.59
2023-01-12T19:53:19.283Z,70.54
2023-01-12T19:55:46.594Z,70.56
2023-01-12T19:58:13.530Z,70.69
2023-01-12T20:00:46.533Z,70.60
2023-01-12T20:03:14.619Z,70.60
2023-01-12T20:05:44.468Z,70.66
2023-01-12T20:08:11.671Z,70.70
2023-01-12T20:10:38.673Z,70.71
2023-01-12T20:13:06.422Z,70.59
2023-01-12T20:15:33.555Z,70.65
2023-01-12T20:18:02.191Z,70.77
2023-01-12T20:20:29.228Z,70.67
2023-01-12T20:22:56.106Z,70.69
2023-01-12T20:25:23.445Z,70.58
2023-01-12T20:27:51.192Z,70.64
2023-01-12T20:30:32.041Z,70.59
2023-01-12T20:33:04.325Z,70.54
2023-01-12T20:35:32.586Z,70.61
2023-01-12T20:37:59.654Z,70.55
2023-01-12T20:40:26.707Z,70.52
2023-01-12T20:42:53.591Z,70.54
2023-01-12T20:45:20.591Z,70.66
2023-01-12T20:47:47.944Z,70.57
2023-01-12T20:50:16.020Z,70.56
2023-01-12T20:52:42.962Z,70.57
2023-01-12T20:55:10.034Z,70.56
2023-01-12T20:57:38.831Z,70.63
2023-01-12T21:00:07.088Z,70.55
2023-01-12T21:02:34.434Z,70.68
2023-01-12T21:05:01.320Z,70.70
2023-01-12T21:07:28.422Z,70.72
2023-01-12T21:09:55.231Z,70.72
2023-01-12T21:12:22.215Z,70.73
2023-01-12T21:14:49.141Z,70.73
2023-01-12T21:17:16.933Z,70.76
2023-01-12T21:19:43.867Z,70.64
2023-01-12T21:22:10.835Z,70.69
2023-01-12T21:24:37.657Z,70.65
2023-01-12T21:27:04.703Z,70.67
2023-01-12T21:29:31.652Z,70.72
2023-01-12T21:31:58.514Z,70.79
2023-01-12T21:34:25.378Z,70.82
2023-01-12T21:36:52.158Z,70.86
2023-01-12T21:39:19.033Z,70.86
2023-01-12T21:42:04.584Z,70.95
2023-01-12T21:44:31.453Z,70.88
2023-01-12T21:46:58.547Z,70.92
2023-01-12T21:49:25.401Z,71.02
2023-01-12T21:51:52.269Z,71.09
2023-01-12T21:54:19.134Z,71.14
2023-01-12T21:56:45.944Z,71.13
2023-01-12T21:59:12.839Z,71.23
2023-01-12T22:01:39.939Z,71.36
2023-01-12T22:04:07.009Z,71.41
2023-01-12T22:06:34.059Z,71.49
2023-01-12T22:09:00.843Z,71.65
2023-01-12T22:11:27.748Z,71.75
2023-01-12T22:13:54.585Z,71.85
2023-01-12T22:16:21.703Z,71.95
2023-01-12T22:18:49.840Z,71.96
2023-01-12T22:21:17.564Z,72.04
2023-01-12T22:23:44.385Z,72.09
2023-01-12T22:26:13.089Z,72.17
2023-01-12T22:28:41.556Z,72.21
2023-01-12T22:31:12.962Z,72.27
2023-01-12T22:33:40.178Z,72.40
2023-01-12T22:36:07.475Z,72.59
2023-01-12T22:38:34.383Z,72.64
2023-01-12T22:41:06.041Z,72.74
2023-01-12T22:43:38.921Z,72.81
2023-01-12T22:46:06.382Z,72.91
2023-01-12T22:48:33.369Z,72.94
2023-01-12T22:51:00.510Z,73.13
2023-01-12T22:53:28.095Z,73.21
2023-01-12T22:55:55.385Z,73.31
2023-01-12T22:58:22.331Z,73.31
2023-01-12T23:00:49.998Z,73.38
2023-01-12T23:03:17.012Z,73.42
2023-01-12T23:05:46.398Z,73.36
2023-01-12T23:08:14.047Z,73.37
2023-01-12T23:10:41.777Z,73.45
2023-01-12T23:13:11.842Z,73.49
2023-01-12T23:15:40.146Z,73.56
2023-01-12T23:18:07.129Z,73.67
2023-01-12T23:20:35.954Z,73.69
2023-01-12T23:23:03.391Z,73.79
2023-01-12T23:25:32.651Z,73.80
2023-01-12T23:27:59.954Z,73.77
2023-01-12T23:30:30.772Z,73.85
2023-01-12T23:33:01.501Z,73.81
2023-01-12T23:35:28.448Z,73.82
2023-01-12T23:37:55.485Z,73.90
2023-01-12T23:40:22.454Z,73.91
2023-01-12T23:42:49.370Z,73.80
2023-01-12T23:45:16.410Z,73.89
2023-01-12T23:47:43.357Z,73.94
2023-01-12T23:50:11.736Z,73.94
2023-01-12T23:52:38.988Z,74.05
2023-01-12T23:55:07.493Z,74.04
2023-01-12T23:57:35.909Z,74.01
